Terminal Aerodrome Forecast
Issued by NWS Charleston, WV

Current Version | Previous Version | Text Only | Print | Product List | Glossary Off
Versions: 1 2 3 4 5 6 7 8 9 10 11 12 13 14 15 16 17 18 19 20 21 22

000
FTUS41 KRLX 191635 AAC
TAFBKW
TAF AMD
KBKW 191635Z 1917/2012 29011G21KT P6SM VCSH BKN015
      TEMPO 1917/1918 1SM -SHSN OVC010
     FM191800 31014G24KT P6SM BKN025
     FM192100 32013G22KT P6SM BKN040
     FM200800 32006KT P6SM SCT030=

USA.gov is the U.S. government's official web portal to all federal, state and local government web resources and services.